Terminal Aerodrome Forecast
Issued by NWS La Crosse, WI

Home | Current Version | Previous Version | Text Only | Print | Product List | Glossary On
Versions: 1 2 3 4 5 6 7 8 9 10 11 12 13 14 15 16 17
000
FTUS43 KARX 240905 AAA
TAFLSE
TAF AMD
KLSE 240905Z 2409/2506 04012G20KT 2SM -SN OVC013
     FM241500 03020G30KT 1 1/2SM -SN OVC008
     FM250000 35014G22KT 1 1/2SM -SN OVC010=

USA.gov is the U.S. government's official web portal to all federal, state and local government web resources and services.